Time;durP1;ratioP1;P1;durP2;ratioP2;P2;SDS_P1;SDS_P2;PMS_P1;PMS_P2;Temp;Humidity;BMP_temperature;BMP_pressure;BME280_temperature;BME280_humidity;BME280_pressure;Samples;Min_cycle;Max_cycle;Signal;HPM_P1;HPM_P2
2023/04/07 00:02:11;;;;;;;9.85;6.60;;;;;;;4.46;70.13;101691.97;5013837;28;20177;-47
2023/04/07 00:04:36;;;;;;;9.27;6.80;;;;;;;4.42;70.18;101693.75;5022337;28;20384;-47
2023/04/07 00:07:02;;;;;;;7.93;6.22;;;;;;;4.37;70.27;101691.97;5020826;28;20251;-45
2023/04/07 00:09:27;;;;;;;7.85;6.22;;;;;;;4.38;70.44;101691.97;5017167;28;20191;-47
2023/04/07 00:11:53;;;;;;;9.00;6.30;;;;;;;4.29;70.72;101697.28;5017072;28;20212;-48
2023/04/07 00:14:19;;;;;;;7.05;6.05;;;;;;;4.25;70.71;101698.16;5016635;28;20221;-47
2023/04/07 00:16:44;;;;;;;8.45;6.35;;;;;;;4.23;70.92;101700.78;5034784;28;20205;-46
2023/04/07 00:19:10;;;;;;;7.53;6.18;;;;;;;4.18;70.93;101706.97;5017954;28;20184;-47
2023/04/07 00:21:36;;;;;;;6.68;6.05;;;;;;;4.21;71.05;101714.94;5019108;28;20206;-46
2023/04/07 00:24:01;;;;;;;6.35;5.70;;;;;;;4.23;70.61;101700.78;5013024;28;20230;-47
2023/04/07 00:26:30;;;;;;;8.60;5.55;;;;;;;4.27;70.36;101714.94;5014712;28;20274;-48
2023/04/07 00:28:56;;;;;;;7.28;5.57;;;;;;;4.31;70.47;101695.50;5021067;28;20276;-48
2023/04/07 00:31:22;;;;;;;5.40;4.78;;;;;;;4.28;70.20;101690.19;5034198;28;20283;-45
2023/04/07 00:33:48;;;;;;;6.15;4.88;;;;;;;4.22;70.05;101696.38;5037064;28;20207;-46
2023/04/07 00:36:14;;;;;;;6.45;4.93;;;;;;;4.17;70.22;101691.94;5021948;28;20560;-46
2023/04/07 00:38:40;;;;;;;6.43;4.95;;;;;;;4.17;70.16;101692.81;5022551;28;20187;-47
2023/04/07 00:41:05;;;;;;;8.30;5.00;;;;;;;4.22;70.17;101698.13;5020721;28;20180;-47
2023/04/07 00:43:31;;;;;;;6.45;4.70;;;;;;;4.20;70.03;101692.84;5032180;28;20211;-47
2023/04/07 00:45:57;;;;;;;4.90;4.40;;;;;;;4.25;70.12;101698.16;5025087;28;20171;-46
2023/04/07 00:48:23;;;;;;;7.07;4.82;;;;;;;4.21;69.86;101696.38;5022527;28;20275;-48
2023/04/07 00:50:49;;;;;;;6.53;4.55;;;;;;;4.10;70.33;101696.34;5020875;28;20179;-49
2023/04/07 00:53:15;;;;;;;5.60;4.22;;;;;;;4.09;70.28;101695.47;5023019;28;20407;-48
2023/04/07 00:55:41;;;;;;;5.97;4.68;;;;;;;4.10;70.31;101697.22;5027206;28;20180;-47
2023/04/07 00:58:08;;;;;;;5.03;3.90;;;;;;;4.11;70.21;101693.69;5024067;28;20553;-47
2023/04/07 01:00:41;;;;;;;5.78;4.68;;;;;;;4.05;70.40;101696.34;5020228;28;20254;-45
2023/04/07 01:03:17;;;;;;;6.32;4.55;;;;;;;3.98;70.54;101701.59;5034247;28;20192;-47
2023/04/07 01:05:55;;;;;;;7.28;4.15;;;;;;;3.94;70.68;101702.50;5035400;28;20638;-45
2023/04/07 01:08:29;;;;;;;5.47;4.13;;;;;;;3.91;70.92;101706.91;5021636;28;20359;-47
2023/04/07 01:11:11;;;;;;;5.68;4.22;;;;;;;3.86;71.17;101705.09;5019188;28;20204;-47
2023/04/07 01:13:49;;;;;;;6.43;4.10;;;;;;;3.81;71.36;101713.03;5033964;28;20184;-46
2023/04/07 01:16:50;;;;;;;5.80;4.38;;;;;;;3.81;71.63;101714.81;5036814;28;20172;-48
2023/04/07 01:19:42;;;;;;;5.65;4.15;;;;;;;3.81;71.60;101715.69;5033983;28;20203;-45
2023/04/07 01:22:16;;;;;;;6.38;4.32;;;;;;;3.77;71.63;101713.03;5037746;28;20263;-46
2023/04/07 01:25:19;;;;;;;5.13;3.95;;;;;;;3.76;71.79;101717.47;5019727;28;20188;-45
2023/04/07 01:28:30;;;;;;;4.75;4.20;;;;;;;3.76;71.81;101714.81;5018667;28;20199;-46
2023/04/07 01:30:58;;;;;;;5.32;4.30;;;;;;;3.79;72.08;101716.56;5020772;28;20218;-47
2023/04/07 01:33:30;;;;;;;5.70;3.92;;;;;;;3.74;72.23;101723.59;5019438;28;20189;-47
2023/04/07 01:35:58;;;;;;;4.55;3.92;;;;;;;3.72;72.21;101721.84;5037968;28;20187;-47
2023/04/07 01:38:25;;;;;;;5.25;4.20;;;;;;;3.77;72.27;101734.25;5025899;28;20199;-48
2023/04/07 01:40:52;;;;;;;5.35;4.45;;;;;;;3.75;72.59;101728.03;5031459;28;20291;-47
2023/04/07 01:43:20;;;;;;;4.50;3.95;;;;;;;3.66;72.56;101732.41;5017979;28;20168;-46
2023/04/07 01:45:46;;;;;;;4.47;4.07;;;;;;;3.68;72.80;101737.72;5017527;28;20177;-46
2023/04/07 01:48:12;;;;;;;6.85;4.10;;;;;;;3.70;72.65;101738.63;5034873;28;20201;-47
2023/04/07 01:50:45;;;;;;;5.40;4.25;;;;;;;3.62;72.82;101733.28;5019646;28;20208;-49
2023/04/07 01:53:14;;;;;;;6.35;3.92;;;;;;;3.60;73.05;101729.72;5035431;28;20250;-47
2023/04/07 01:55:41;;;;;;;6.82;3.83;;;;;;;3.58;73.03;101744.72;5020302;28;20681;-46
2023/04/07 01:58:08;;;;;;;5.22;3.63;;;;;;;3.59;73.31;101730.63;5037864;28;20257;-47
2023/04/07 02:00:36;;;;;;;5.55;3.30;;;;;;;3.59;73.32;101743.00;5033228;28;20176;-47
2023/04/07 02:03:30;;;;;;;4.50;3.60;;;;;;;3.51;73.50;101735.00;5030727;28;20189;-48
2023/04/07 02:06:07;;;;;;;7.38;4.18;;;;;;;3.45;73.84;101748.19;5019401;28;20549;-45
2023/04/07 02:08:40;;;;;;;5.65;3.55;;;;;;;3.47;74.11;101746.44;5038082;28;20208;-48
2023/04/07 02:11:07;;;;;;;6.25;4.63;;;;;;;3.43;74.06;101748.22;4997491;28;20237;-48
2023/04/07 02:13:36;;;;;;;5.45;3.88;;;;;;;3.36;74.37;101750.78;5037853;28;20187;-48
2023/04/07 02:16:04;;;;;;;6.97;4.47;;;;;;;3.39;74.48;101750.78;5034073;28;20202;-47
2023/04/07 02:18:31;;;;;;;3.78;3.35;;;;;;;3.32;74.63;101757.81;5029758;28;20273;-48
2023/04/07 02:20:58;;;;;;;5.55;3.97;;;;;;;3.35;74.44;101743.75;5019223;28;20180;-48
2023/04/07 02:23:24;;;;;;;5.63;3.60;;;;;;;3.32;74.65;101749.00;5019325;28;20184;-46
2023/04/07 02:25:50;;;;;;;5.55;4.18;;;;;;;3.33;74.80;101748.13;5032973;28;20526;-47
2023/04/07 02:28:15;;;;;;;5.00;4.00;;;;;;;3.34;74.87;101752.53;5014339;28;20208;-48
2023/04/07 02:30:44;;;;;;;5.43;4.03;;;;;;;3.22;75.20;101756.88;5035922;28;20187;-47
2023/04/07 02:33:09;;;;;;;5.90;4.07;;;;;;;3.24;75.22;101768.38;5021696;28;20198;-46
2023/04/07 02:35:35;;;;;;;4.30;3.90;;;;;;;3.18;75.57;101762.16;5011687;28;20203;-45
2023/04/07 02:38:01;;;;;;;4.85;4.10;;;;;;;3.17;75.77;101763.00;5031482;28;20294;-47
2023/04/07 02:40:26;;;;;;;4.30;3.90;;;;;;;3.16;75.88;101764.78;5029455;28;20195;-46
2023/04/07 02:42:52;;;;;;;5.40;4.30;;;;;;;3.14;76.16;101769.19;5016705;28;20173;-46
2023/04/07 02:45:21;;;;;;;4.93;4.45;;;;;;;3.11;76.41;101777.13;5022097;28;20195;-48
2023/04/07 02:47:47;;;;;;;6.63;4.70;;;;;;;3.03;76.62;101771.75;5016790;28;20196;-47
2023/04/07 02:50:12;;;;;;;5.03;3.90;;;;;;;2.99;77.05;101779.66;5035312;28;20263;-45
2023/04/07 02:52:38;;;;;;;5.18;4.53;;;;;;;2.99;77.27;101784.94;5030800;28;20214;-45
2023/04/07 02:55:09;;;;;;;7.63;4.63;;;;;;;2.98;77.63;101788.47;5041310;28;20217;-47
2023/04/07 02:57:34;;;;;;;5.28;4.50;;;;;;;2.94;77.85;101797.25;5032852;28;20244;-46
2023/04/07 03:00:03;;;;;;;7.22;4.68;;;;;;;2.84;77.92;101786.59;5023457;28;20189;-47
2023/04/07 03:02:45;;;;;;;7.72;4.90;;;;;;;2.78;78.54;101799.78;5034822;28;20184;-46
2023/04/07 03:05:11;;;;;;;6.38;4.88;;;;;;;2.80;78.44;101799.75;5030875;28;20203;-47
2023/04/07 03:07:37;;;;;;;6.35;4.82;;;;;;;2.72;78.91;101805.00;5034239;28;20247;-46
2023/04/07 03:10:04;;;;;;;5.95;5.35;;;;;;;2.76;79.03;101798.88;5019299;28;20191;-47
2023/04/07 03:12:31;;;;;;;5.30;4.80;;;;;;;2.70;79.10;101801.44;5023237;28;20183;-50
2023/04/07 03:14:56;;;;;;;6.68;5.53;;;;;;;2.73;79.20;101798.81;5029602;28;20195;-48
2023/04/07 03:17:23;;;;;;;5.72;4.93;;;;;;;2.70;79.43;101801.44;5045105;28;20195;-50
2023/04/07 03:19:50;;;;;;;6.15;5.25;;;;;;;2.71;79.54;101803.22;5029753;28;20575;-47
2023/04/07 03:22:17;;;;;;;6.18;5.38;;;;;;;2.73;79.56;101804.09;5028201;28;20230;-48
2023/04/07 03:24:48;;;;;;;7.03;5.63;;;;;;;2.70;79.16;101803.22;5045049;28;20171;-49
2023/04/07 03:27:15;;;;;;;6.68;5.55;;;;;;;2.67;79.60;101810.25;5044740;28;20246;-48
2023/04/07 03:29:44;;;;;;;7.22;5.68;;;;;;;2.63;79.65;101812.84;5045061;28;20210;-49
2023/04/07 03:32:12;;;;;;;6.63;5.40;;;;;;;2.64;79.70;101814.59;5044766;28;20231;-49
2023/04/07 03:34:38;;;;;;;6.13;5.53;;;;;;;2.64;79.95;101811.97;5044636;28;20238;-48
2023/04/07 03:37:04;;;;;;;6.93;5.45;;;;;;;2.60;79.99;101816.34;5029732;28;20184;-49
2023/04/07 03:39:36;;;;;;;10.90;5.90;;;;;;;2.57;80.08;101812.78;5044811;28;20237;-48
2023/04/07 03:42:02;;;;;;;6.47;5.70;;;;;;;2.59;79.76;101816.34;5028030;28;20637;-50
2023/04/07 03:44:31;;;;;;;7.80;5.55;;;;;;;2.60;79.73;101812.81;5044866;28;20714;-47
2023/04/07 03:46:57;;;;;;;6.75;4.82;;;;;;;2.56;79.69;101806.63;5029457;28;20195;-52
2023/04/07 03:49:23;;;;;;;7.93;5.30;;;;;;;2.50;79.60;101811.84;5024173;28;20598;-46
2023/04/07 03:51:50;;;;;;;6.97;5.63;;;;;;;2.46;79.84;101797.66;5030737;28;20196;-46
2023/04/07 03:54:17;;;;;;;6.05;5.40;;;;;;;2.47;79.71;101812.69;5030592;28;20363;-47
2023/04/07 03:56:44;;;;;;;6.72;5.35;;;;;;;2.45;79.82;101813.56;5032088;28;20208;-49
2023/04/07 03:59:10;;;;;;;8.10;5.45;;;;;;;2.36;80.06;101821.34;5031862;28;20278;-46
2023/04/07 04:01:45;;;;;;;6.47;5.80;;;;;;;2.37;80.33;101824.03;5034549;28;20171;-48
2023/04/07 04:04:14;;;;;;;6.50;5.53;;;;;;;2.38;80.53;101830.19;5040673;28;20242;-49
2023/04/07 04:06:40;;;;;;;6.30;5.70;;;;;;;2.26;81.06;101841.53;5023284;28;20742;-48
2023/04/07 04:09:30;;;;;;;9.30;6.15;;;;;;;2.19;81.38;101840.56;5036425;28;20177;-47
2023/04/07 04:11:55;;;;;;;8.07;6.93;;;;;;;2.10;81.61;101851.03;5017806;28;20207;-46
2023/04/07 04:14:22;;;;;;;7.18;6.43;;;;;;;2.10;81.83;101844.81;5020512;28;20192;-46
2023/04/07 04:16:55;;;;;;;8.32;6.47;;;;;;;2.06;82.24;101855.38;5044044;28;20243;-48
2023/04/07 04:19:29;;;;;;;9.32;7.13;;;;;;;2.09;82.67;101858.94;5031530;28;20226;-48
2023/04/07 04:21:57;;;;;;;8.30;6.93;;;;;;;2.02;83.25;101861.50;5048349;28;20188;-48
2023/04/07 04:24:25;;;;;;;8.38;6.90;;;;;;;2.02;83.63;101872.06;5048333;28;20314;-50
2023/04/07 04:26:55;;;;;;;9.77;7.30;;;;;;;1.96;84.17;101873.72;5047861;28;20203;-49
2023/04/07 04:29:21;;;;;;;7.97;7.18;;;;;;;1.90;84.27;101881.56;5032965;28;20601;-46
2023/04/07 04:31:46;;;;;;;12.13;7.90;;;;;;;1.89;84.76;101880.69;5032622;28;20283;-49
2023/04/07 04:34:13;;;;;;;8.30;7.47;;;;;;;1.81;85.27;101892.88;5031068;28;20216;-49
2023/04/07 04:36:40;;;;;;;8.55;7.32;;;;;;;1.78;85.70;101882.28;5047679;28;20202;-49
2023/04/07 04:39:06;;;;;;;9.25;7.75;;;;;;;1.71;85.98;101897.16;5047281;28;20326;-51
2023/04/07 04:41:33;;;;;;;9.07;7.90;;;;;;;1.73;86.29;101894.50;5047590;28;20222;-49
2023/04/07 04:44:00;;;;;;;11.68;8.27;;;;;;;1.74;86.99;101901.59;5047685;28;20650;-49
2023/04/07 04:46:26;;;;;;;9.82;7.78;;;;;;;1.77;87.14;101888.41;5031903;28;20184;-49
2023/04/07 04:48:53;;;;;;;8.48;7.68;;;;;;;1.80;87.91;101901.69;5047340;28;20310;-49
2023/04/07 04:51:20;;;;;;;9.60;8.18;;;;;;;1.70;88.39;101910.34;5047269;28;20697;-47
2023/04/07 04:53:51;;;;;;;10.43;8.45;;;;;;;1.71;88.54;101914.78;5047313;28;20476;-48
2023/04/07 04:56:16;;;;;;;9.57;8.57;;;;;;;1.65;89.30;101908.50;5047392;28;20394;-46
2023/04/07 04:58:47;;;;;;;10.48;8.48;;;;;;;1.74;89.97;101904.25;5047180;28;20183;-51
2023/04/07 05:01:35;;;;;;;12.80;9.05;;;;;;;1.72;90.22;101909.50;5029721;28;20184;-49
2023/04/07 05:04:07;;;;;;;10.52;9.18;;;;;;;1.80;90.85;101917.53;5034738;28;20180;-49
2023/04/07 05:06:33;;;;;;;11.07;8.88;;;;;;;1.83;91.06;101920.22;5019042;28;20173;-50
2023/04/07 05:09:04;;;;;;;10.35;9.20;;;;;;;1.93;91.46;101915.97;5018457;28;20268;-50
2023/04/07 05:11:40;;;;;;;10.50;9.40;;;;;;;2.10;91.53;101921.50;5035523;28;20215;-49
2023/04/07 05:14:05;;;;;;;11.25;8.52;;;;;;;2.16;91.41;101919.81;5010957;28;20527;-51
2023/04/07 05:16:31;;;;;;;11.57;9.15;;;;;;;2.33;91.42;101930.63;5026586;28;20504;-49
2023/04/07 05:18:56;;;;;;;11.73;9.55;;;;;;;2.61;91.14;101926.59;5029763;28;20192;-48
2023/04/07 05:21:25;;;;;;;13.18;8.80;;;;;;;2.78;90.76;101926.78;5040344;28;20222;-50
2023/04/07 05:23:52;;;;;;;10.57;9.05;;;;;;;2.99;90.17;101933.19;5026220;28;20241;-52
2023/04/07 05:26:20;;;;;;;9.82;8.18;;;;;;;3.04;89.37;101927.09;5031192;28;20246;-47
2023/04/07 05:28:46;;;;;;;10.93;9.23;;;;;;;3.06;88.95;101927.06;5046658;28;20176;-48
2023/04/07 05:31:17;;;;;;;15.07;9.48;;;;;;;2.95;88.70;101923.44;5038540;28;20204;-47
2023/04/07 05:33:45;;;;;;;12.48;9.32;;;;;;;3.16;88.61;101925.44;5014425;28;20212;-48
2023/04/07 05:36:11;;;;;;;11.80;9.60;;;;;;;3.38;88.09;101926.53;5031089;28;20201;-50
2023/04/07 05:38:40;;;;;;;10.43;8.50;;;;;;;3.44;87.46;101930.09;5032382;28;20230;-51
2023/04/07 05:41:11;;;;;;;10.02;8.98;;;;;;;3.75;87.07;101919.75;5037083;28;20279;-51
2023/04/07 05:43:37;;;;;;;10.20;8.45;;;;;;;3.88;86.25;101932.22;5032530;28;20177;-53
2023/04/07 05:46:04;;;;;;;11.45;9.27;;;;;;;4.00;85.16;101927.88;5031505;28;20176;-52
2023/04/07 05:48:30;;;;;;;12.10;8.65;;;;;;;4.31;84.16;101932.50;5032209;28;20308;-52
2023/04/07 05:50:57;;;;;;;12.32;8.18;;;;;;;4.31;83.59;101923.66;5034986;28;20180;-51
2023/04/07 05:53:23;;;;;;;11.30;8.23;;;;;;;4.30;82.78;101930.69;5031614;28;20188;-51
2023/04/07 05:55:50;;;;;;;10.52;7.75;;;;;;;4.16;82.39;101929.75;5031825;28;20172;-52
2023/04/07 05:58:26;;;;;;;11.88;8.40;;;;;;;4.67;81.87;101927.34;5033738;28;20255;-51
2023/04/07 06:00:54;;;;;;;9.75;8.00;;;;;;;4.47;81.25;101930.78;5037549;28;20235;-52
2023/04/07 06:03:20;;;;;;;9.15;7.78;;;;;;;4.96;81.21;101927.44;5032066;28;20207;-51
2023/04/07 06:05:57;;;;;;;9.18;7.25;;;;;;;4.51;80.26;101937.03;5032327;28;20172;-51
2023/04/07 06:08:23;;;;;;;13.20;7.85;;;;;;;4.85;80.35;101940.66;5025431;28;20295;-51
2023/04/07 06:10:49;;;;;;;10.75;8.00;;;;;;;4.60;79.53;101937.06;5034045;28;20262;-51
2023/04/07 06:13:14;;;;;;;10.75;7.78;;;;;;;4.98;79.35;101932.75;5019095;28;20753;-51
2023/04/07 06:15:41;;;;;;;12.55;7.55;;;;;;;5.12;78.29;101942.53;5029781;28;20180;-45
2023/04/07 06:18:09;;;;;;;10.18;7.15;;;;;;;5.09;78.33;101934.53;5032283;28;20746;-44
2023/04/07 06:20:35;;;;;;;12.73;7.68;;;;;;;5.21;78.09;101936.34;5019318;28;20192;-44
2023/04/07 06:23:00;;;;;;;10.55;7.32;;;;;;;5.15;77.80;101929.25;5018941;28;20190;-44
2023/04/07 06:25:26;;;;;;;8.68;6.78;;;;;;;5.59;77.89;101948.78;5020197;28;20193;-46
2023/04/07 06:27:53;;;;;;;9.88;6.90;;;;;;;5.76;77.29;101932.84;5032197;28;20290;-46
2023/04/07 06:30:19;;;;;;;10.63;6.82;;;;;;;5.83;76.51;101931.94;5035865;28;20176;-46
2023/04/07 06:32:45;;;;;;;9.00;7.30;;;;;;;5.84;76.34;101936.38;5029930;28;20193;-47
2023/04/07 06:35:11;;;;;;;8.48;6.25;;;;;;;5.88;75.78;101934.59;5029369;28;20203;-45
2023/04/07 06:37:38;;;;;;;9.35;6.38;;;;;;;5.75;76.04;101939.94;5034395;28;20196;-46
2023/04/07 06:40:05;;;;;;;9.75;6.00;;;;;;;5.53;76.22;101959.41;5034308;28;20212;-48
2023/04/07 06:42:31;;;;;;;9.80;6.05;;;;;;;5.73;76.08;101962.09;5014960;28;20176;-45
2023/04/07 06:45:05;;;;;;;8.48;5.45;;;;;;;5.97;75.75;101951.47;5035153;28;20173;-47
2023/04/07 06:47:31;;;;;;;7.25;5.97;;;;;;;6.33;75.44;101960.25;5014882;28;20212;-47
2023/04/07 06:49:56;;;;;;;9.63;6.15;;;;;;;6.27;74.66;101970.91;5014273;28;20172;-48
2023/04/07 06:52:22;;;;;;;6.78;5.32;;;;;;;6.64;74.11;101960.16;5014888;28;20196;-48
2023/04/07 06:54:48;;;;;;;7.20;5.38;;;;;;;6.83;73.12;101953.00;5027364;28;20172;-50
2023/04/07 06:57:13;;;;;;;7.13;5.10;;;;;;;6.90;72.41;101951.19;5018983;28;20659;-48
2023/04/07 06:59:39;;;;;;;6.25;4.57;;;;;;;7.06;71.81;101946.66;5019860;28;20222;-47
2023/04/07 07:02:06;;;;;;;8.05;5.70;;;;;;;7.04;70.89;101941.34;5029247;28;20164;-50
2023/04/07 07:04:33;;;;;;;7.32;5.50;;;;;;;6.67;70.67;101948.63;5024724;28;20183;-50
2023/04/07 07:06:58;;;;;;;6.90;5.05;;;;;;;7.43;70.05;101947.28;5016168;28;20282;-50
2023/04/07 07:09:25;;;;;;;6.50;5.32;;;;;;;7.50;68.98;101937.47;5007912;28;20220;-47
2023/04/07 07:11:51;;;;;;;8.25;5.50;;;;;;;7.22;67.80;101922.56;5009880;28;20205;-49
2023/04/07 07:14:16;;;;;;;6.03;4.72;;;;;;;7.29;67.32;101925.19;5024368;28;20190;-51
2023/04/07 07:16:42;;;;;;;10.35;4.47;;;;;;;7.20;66.55;101918.16;5013570;28;20335;-47
2023/04/07 07:19:08;;;;;;;9.93;4.72;;;;;;;7.36;65.49;101909.13;5029637;28;20196;-47
2023/04/07 07:21:34;;;;;;;5.93;4.50;;;;;;;7.36;64.11;101902.91;5029281;28;20161;-46
2023/04/07 07:23:59;;;;;;;6.43;4.05;;;;;;;7.86;63.92;101896.25;5020514;28;20187;-49
2023/04/07 07:26:26;;;;;;;5.57;3.97;;;;;;;7.65;63.14;101889.34;5008743;28;20724;-49
2023/04/07 07:28:51;;;;;;;6.40;4.10;;;;;;;7.84;62.69;101884.72;5012164;28;20547;-49
2023/04/07 07:31:17;;;;;;;6.53;3.90;;;;;;;8.49;61.86;101894.72;5029976;28;20286;-45
2023/04/07 07:33:44;;;;;;;8.00;3.75;;;;;;;7.92;61.08;101882.00;5029948;28;20183;-45
2023/04/07 07:36:10;;;;;;;8.10;4.50;;;;;;;7.68;60.60;101883.13;5030135;28;20248;-47
2023/04/07 07:38:36;;;;;;;6.70;3.83;;;;;;;7.92;61.10;101892.66;5049031;28;20267;-47
2023/04/07 07:41:02;;;;;;;5.78;3.70;;;;;;;7.81;60.42;101880.31;5034577;28;20271;-45
2023/04/07 07:43:28;;;;;;;6.28;3.80;;;;;;;7.68;60.98;101886.66;5033489;28;20222;-52
2023/04/07 07:45:54;;;;;;;6.32;3.60;;;;;;;8.09;60.64;101900.47;5033983;28;20188;-47
2023/04/07 07:48:19;;;;;;;4.45;3.80;;;;;;;7.79;60.21;101894.56;5048708;28;20368;-48
2023/04/07 07:50:45;;;;;;;4.18;3.13;;;;;;;7.99;60.18;101892.56;5048955;28;20211;-46
2023/04/07 07:53:11;;;;;;;4.90;3.45;;;;;;;7.77;59.77;101899.91;5028877;28;20207;-46
2023/04/07 07:55:36;;;;;;;6.75;3.78;;;;;;;8.30;59.42;101902.91;5014541;28;20548;-46
2023/04/07 07:58:02;;;;;;;6.88;3.28;;;;;;;8.39;59.21;101891.22;5033388;28;20189;-50
2023/04/07 08:00:28;;;;;;;5.13;3.40;;;;;;;8.68;58.39;101888.25;5033661;28;20164;-45
2023/04/07 08:02:54;;;;;;;5.80;4.03;;;;;;;8.43;57.72;101887.66;5048358;28;20195;-46
2023/04/07 08:05:19;;;;;;;7.43;4.25;;;;;;;8.34;57.20;101875.28;5046654;28;20625;-47
2023/04/07 08:07:45;;;;;;;6.03;4.05;;;;;;;8.76;56.57;101874.75;5017428;28;20203;-49
2023/04/07 08:10:12;;;;;;;4.93;4.10;;;;;;;8.73;55.96;101883.72;5020050;28;20179;-47
2023/04/07 08:12:38;;;;;;;5.97;3.65;;;;;;;8.49;56.36;101884.91;5019013;28;20188;-49
2023/04/07 08:15:05;;;;;;;4.78;3.78;;;;;;;8.99;56.74;101885.13;5018960;28;20192;-48
2023/04/07 08:17:31;;;;;;;7.45;3.80;;;;;;;9.49;56.26;101888.81;5017956;28;20249;-49
2023/04/07 08:19:56;;;;;;;5.35;3.70;;;;;;;9.24;56.49;101894.53;5023668;28;20678;-49
2023/04/07 08:22:22;;;;;;;5.10;3.40;;;;;;;8.61;56.46;101895.44;5016029;28;20185;-47
2023/04/07 08:24:48;;;;;;;4.88;3.55;;;;;;;8.55;56.65;101883.94;5019487;28;20342;-49
2023/04/07 08:27:13;;;;;;;5.50;3.78;;;;;;;8.44;56.08;101897.47;5017636;28;20209;-48
2023/04/07 08:29:39;;;;;;;4.43;3.40;;;;;;;8.33;56.56;101896.63;5018885;28;20180;-47
2023/04/07 08:32:05;;;;;;;3.78;3.17;;;;;;;8.33;56.76;101899.31;5020216;28;20291;-47
2023/04/07 08:34:31;;;;;;;4.65;2.95;;;;;;;7.72;56.81;101896.41;5016547;28;20204;-47
2023/04/07 08:36:56;;;;;;;5.65;3.08;;;;;;;7.82;57.47;101910.53;5021090;28;20203;-49
2023/04/07 08:39:24;;;;;;;3.72;3.00;;;;;;;8.36;57.86;101913.53;5019503;28;20179;-50
2023/04/07 08:41:50;;;;;;;4.70;3.22;;;;;;;8.28;57.21;101903.81;5018978;28;20674;-47
2023/04/07 08:44:16;;;;;;;4.38;2.90;;;;;;;8.69;56.90;101913.16;5024681;28;20204;-46
2023/04/07 08:46:43;;;;;;;4.55;2.85;;;;;;;8.56;57.18;101907.97;5021293;28;20441;-47
2023/04/07 08:49:12;;;;;;;5.72;2.67;;;;;;;8.10;57.56;101912.94;5015395;28;20191;-47
2023/04/07 08:51:45;;;;;;;3.17;2.60;;;;;;;8.28;58.37;101927.84;5017048;28;20224;-46
2023/04/07 08:54:13;;;;;;;4.30;2.92;;;;;;;8.09;59.10;101938.75;5022397;28;20183;-46
2023/04/07 08:56:41;;;;;;;5.95;2.60;;;;;;;7.23;59.30;101944.78;5017503;28;20192;-46
2023/04/07 08:59:08;;;;;;;5.05;2.85;;;;;;;7.92;59.83;101946.03;5020249;28;20208;-47
2023/04/07 09:01:35;;;;;;;5.60;3.22;;;;;;;8.10;60.04;101961.84;5020356;28;20172;-47
2023/04/07 09:04:02;;;;;;;6.18;2.95;;;;;;;7.66;61.45;101963.13;5020715;28;20196;-45
2023/04/07 09:06:32;;;;;;;6.13;2.70;;;;;;;7.89;63.79;101991.41;5015134;28;20566;-44
2023/04/07 09:08:59;;;;;;;3.58;2.28;;;;;;;7.61;65.05;102002.31;5018510;28;20237;-46
2023/04/07 09:11:28;;;;;;;4.22;2.20;;;;;;;8.12;65.74;102001.88;5021604;28;20232;-48
2023/04/07 09:13:54;;;;;;;3.70;2.13;;;;;;;8.37;66.08;102013.19;5024828;28;20180;-46
2023/04/07 09:16:21;;;;;;;3.05;2.20;;;;;;;8.51;66.39;102030.03;5021729;28;20172;-48
2023/04/07 09:18:46;;;;;;;4.18;2.28;;;;;;;7.69;67.51;102010.25;5016378;28;20651;-46
2023/04/07 09:21:12;;;;;;;6.25;2.22;;;;;;;8.09;67.45;102018.81;5017971;28;20438;-47
2023/04/07 09:23:39;;;;;;;5.13;2.30;;;;;;;8.04;67.86;102026.84;5020004;28;20177;-47
2023/04/07 09:26:17;;;;;;;5.97;2.55;;;;;;;8.11;68.38;102030.38;5017963;28;20177;-47
2023/04/07 09:28:46;;;;;;;4.15;2.40;;;;;;;7.66;69.98;102036.94;5015806;28;20267;-48
2023/04/07 09:31:11;;;;;;;4.90;2.22;;;;;;;8.02;69.75;102033.09;5019187;28;20176;-49
2023/04/07 09:33:38;;;;;;;3.03;2.00;;;;;;;8.10;70.39;102038.38;5020583;28;20196;-48
2023/04/07 09:36:05;;;;;;;3.65;1.80;;;;;;;7.96;69.36;102050.06;5023059;28;20180;-47
2023/04/07 09:38:39;;;;;;;3.90;2.00;;;;;;;7.91;70.63;102040.31;5017292;28;20404;-48
2023/04/07 09:41:10;;;;;;;5.63;1.98;;;;;;;8.37;69.79;102040.78;5015870;28;20180;-49
2023/04/07 09:43:38;;;;;;;8.20;2.00;;;;;;;7.54;69.19;102036.13;5019151;28;20655;-47
2023/04/07 09:46:15;;;;;;;2.78;1.65;;;;;;;7.75;69.48;102042.22;5017842;28;20290;-48
2023/04/07 09:48:42;;;;;;;3.63;1.90;;;;;;;7.33;70.01;102031.81;5019540;28;20201;-49
2023/04/07 09:51:16;;;;;;;4.30;1.65;;;;;;;7.95;69.20;102036.72;5018004;28;20235;-50
2023/04/07 09:53:47;;;;;;;4.63;1.77;;;;;;;7.86;68.47;102024.34;5013339;28;20664;-47
2023/04/07 09:56:15;;;;;;;5.97;1.75;;;;;;;7.99;68.02;102022.47;5019537;28;20207;-50
2023/04/07 09:58:43;;;;;;;3.20;1.95;;;;;;;7.66;68.72;102029.81;5017597;28;20197;-47
2023/04/07 10:01:10;;;;;;;5.25;1.60;;;;;;;7.89;68.95;102026.97;5029157;28;20271;-49
2023/04/07 10:03:36;;;;;;;4.53;1.80;;;;;;;7.95;68.92;102023.38;5020219;28;20172;-49
2023/04/07 10:06:03;;;;;;;4.20;1.60;;;;;;;8.40;67.46;102016.78;5017269;28;20193;-48
2023/04/07 10:08:35;;;;;;;3.25;1.50;;;;;;;8.09;64.71;101992.13;5014287;28;20279;-49
2023/04/07 10:11:02;;;;;;;3.53;1.63;;;;;;;8.08;64.05;101973.44;5017881;28;20643;-48
2023/04/07 10:13:29;;;;;;;4.28;1.70;;;;;;;8.35;64.52;101986.53;5015099;28;20279;-47
2023/04/07 10:15:56;;;;;;;5.53;1.60;;;;;;;8.15;65.99;101997.38;5016265;28;20180;-49
2023/04/07 10:18:30;;;;;;;2.58;1.85;;;;;;;7.67;67.00;102012.91;5034337;23;20227;-46
2023/04/07 10:20:57;;;;;;;5.38;1.73;;;;;;;7.70;67.24;102023.56;4991849;28;20897;-49
2023/04/07 10:23:33;;;;;;;4.22;1.63;;;;;;;7.51;66.86;102012.13;5001196;28;20232;-48
2023/04/07 10:26:00;;;;;;;3.40;1.60;;;;;;;7.15;67.72;102014.13;4998991;28;20184;-50
2023/04/07 10:28:29;;;;;;;4.65;1.75;;;;;;;7.12;68.19;102032.78;4998201;28;20216;-48
2023/04/07 10:30:56;;;;;;;2.53;1.67;;;;;;;7.02;69.05;102036.41;4996173;28;20178;-50
2023/04/07 10:33:45;;;;;;;3.75;1.88;;;;;;;6.63;69.77;102051.63;4997839;28;20261;-49
2023/04/07 10:36:12;;;;;;;2.67;2.00;;;;;;;7.13;70.95;102061.22;4999735;28;20204;-49
2023/04/07 10:38:38;;;;;;;3.22;1.85;;;;;;;6.97;70.99;102064.81;4991677;28;20262;-48
2023/04/07 10:41:35;;;;;;;3.65;1.83;;;;;;;7.42;70.58;102053.06;4997559;28;20653;-47
2023/04/07 10:44:09;;;;;;;2.70;1.80;;;;;;;6.96;70.18;102076.38;4998621;28;20721;-46
2023/04/07 10:46:44;;;;;;;3.50;1.70;;;;;;;7.46;70.45;102064.63;4996011;28;20275;-46
2023/04/07 10:49:12;;;;;;;2.60;1.58;;;;;;;7.31;69.50;102049.59;4998338;28;20220;-47
2023/04/07 10:51:38;;;;;;;6.75;1.80;;;;;;;7.20;69.39;102054.09;4998055;28;20283;-46
2023/04/07 10:54:24;;;;;;;1.90;1.45;;;;;;;6.94;68.89;102047.06;4995389;28;20236;-46
2023/04/07 10:57:02;;;;;;;3.83;1.80;;;;;;;7.62;68.96;102042.28;4996139;28;20207;-47
2023/04/07 10:59:32;;;;;;;2.50;1.80;;;;;;;7.79;69.36;102063.50;4997410;28;20179;-46
2023/04/07 11:02:12;;;;;;;3.08;1.30;;;;;;;7.93;69.12;102055.41;4995518;28;20741;-47
2023/04/07 11:04:44;;;;;;;2.75;1.88;;;;;;;7.73;68.22;102049.34;4999679;28;20661;-47
2023/04/07 11:07:10;;;;;;;3.17;1.77;;;;;;;7.03;68.19;102034.63;4995828;28;20212;-47
2023/04/07 11:09:37;;;;;;;1.90;1.70;;;;;;;7.49;68.89;102053.03;4997653;28;20778;-47
2023/04/07 11:12:03;;;;;;;3.38;1.67;;;;;;;7.46;68.02;102047.75;4995445;28;20197;-48
2023/04/07 11:14:31;;;;;;;2.90;1.75;;;;;;;6.78;67.74;102043.59;4993737;28;20184;-48
2023/04/07 11:16:58;;;;;;;4.72;1.83;;;;;;;6.87;68.54;102060.44;4997276;28;20189;-46
2023/04/07 11:19:24;;;;;;;2.72;1.52;;;;;;;7.07;69.58;102066.56;4998387;28;20188;-48
2023/04/07 11:21:49;;;;;;;2.90;1.80;;;;;;;7.92;69.52;102071.44;5000285;28;20176;-48
2023/04/07 11:24:50;;;;;;;2.17;1.90;;;;;;;7.26;68.17;102055.81;4999168;28;20193;-47
2023/04/07 11:27:16;;;;;;;2.10;1.80;;;;;;;6.97;67.83;102071.03;4923040;29;20203;-47
2023/04/07 11:29:42;;;;;;;3.25;2.17;;;;;;;7.20;67.55;102059.41;4982496;28;20223;-47
2023/04/07 11:32:08;;;;;;;3.75;2.05;;;;;;;7.50;68.15;102057.47;4995715;28;20779;-47
2023/04/07 11:34:35;;;;;;;2.65;1.90;;;;;;;7.63;66.85;102046.75;4993867;28;20245;-47
2023/04/07 11:37:20;;;;;;;5.85;2.25;;;;;;;7.63;67.42;102052.06;5000002;28;20280;-48
2023/04/07 11:39:56;;;;;;;2.80;1.92;;;;;;;7.25;67.00;102060.28;4997541;28;20194;-48